This is the latest recevied weather packets stored in our database for station/object K2BIG. If no packets are shown the sender has not sent any weather packets the latest 10 day(s).
| Time | Temp. | Humidity | Pressure | Rain* | Wind** | Luminosity | Snow |
|---|---|---|---|---|---|---|---|
| 1777606516 | 10° C | 65% | 1010.8 hPa | 0 mm | - | - | - |
| 1777606216 | 10° C | 64% | 1010.8 hPa | 0 mm | - | - | - |
| 1777605916 | 10° C | 64% | 1010.8 hPa | 0 mm | - | - | - |
| 1777605616 | 10° C | 65% | 1010.8 hPa | 0 mm | - | - | - |
| 1777605316 | 10° C | 65% | 1010.8 hPa | 0 mm | - | - | - |
| 1777605016 | 10° C | 65% | 1010.8 hPa | 0 mm | - | - | - |
| 1777604717 | 10° C | 65% | 1010.7 hPa | 0 mm | - | - | - |
| 1777604416 | 10° C | 66% | 1010.6 hPa | 0 mm | - | - | - |
| 1777604116 | 10° C | 67% | 1010.6 hPa | 0 mm | - | - | - |
| 1777603816 | 10° C | 69% | 1010.5 hPa | 0 mm | - | - | - |
| 1777603516 | 10° C | 70% | 1010.5 hPa | 0 mm | - | - | - |
| 1777603216 | 10° C | 71% | 1010.4 hPa | 0 mm | - | - | - |
| 1777602916 | 10° C | 71% | 1010.3 hPa | 0 mm | - | - | - |
| 1777602616 | 10° C | 72% | 1010.4 hPa | 0 mm | - | - | - |
| 1777602316 | 10° C | 72% | 1010.4 hPa | 0 mm | - | - | - |
| 1777602016 | 10° C | 73% | 1010.3 hPa | 0 mm | - | - | - |
| 1777587316 | 13.89° C | 65% | 1007.8 hPa | 0 mm | - | - | - |
| 1777586716 | 14.44° C | 65% | 1007.8 hPa | 0 mm | - | - | - |
| 1777586116 | 13.89° C | 70% | 1007.7 hPa | 0 mm | - | - | - |
| 1777585816 | 13.89° C | 69% | 1007.7 hPa | 0 mm | - | - | - |
| 1777584916 | 13.89° C | 71% | 1007.4 hPa | 0 mm | - | - | - |
| 1777584616 | 13.89° C | 69% | 1007.4 hPa | 0 mm | - | - | - |
| 1777584316 | 13.89° C | 70% | 1007.3 hPa | 0 mm | - | - | - |
| 1777584016 | 13.89° C | 70% | 1007.2 hPa | 0 mm | - | - | - |
| 1777583716 | 14.44° C | 68% | 1007.2 hPa | 0 mm | - | - | - |
* Rain latest hour (hover to see other rain measurements)
** Current wind speed in m/s (hover to see current wind gust speed)